Time;durP1;ratioP1;P1;durP2;ratioP2;P2;SDS_P1;SDS_P2;PMS_P1;PMS_P2;Temp;Humidity;BMP_temperature;BMP_pressure;BME280_temperature;BME280_humidity;BME280_pressure;Samples;Min_cycle;Max_cycle;Signal;HPM_P1;HPM_P2
2022/04/30 00:01:26;;;;;;;7.00;5.53;;;12.30;56.20;;;;;;5065628;28;20029;-61
2022/04/30 00:03:52;;;;;;;7.30;5.20;;;12.30;56.40;;;;;;5063741;28;20039;-61
2022/04/30 00:06:18;;;;;;;7.18;5.20;;;12.30;56.40;;;;;;5072643;28;20070;-61
2022/04/30 00:08:43;;;;;;;7.68;5.53;;;12.20;56.50;;;;;;5073333;28;20207;-61
2022/04/30 00:11:09;;;;;;;6.72;5.05;;;12.20;56.70;;;;;;5073546;28;20025;-61
2022/04/30 00:13:36;;;;;;;7.03;5.20;;;12.30;57.00;;;;;;5073911;28;20546;-61
2022/04/30 00:16:01;;;;;;;5.32;4.70;;;12.20;57.00;;;;;;5070200;28;20380;-61
2022/04/30 00:18:27;;;;;;;6.53;4.85;;;12.20;57.20;;;;;;5064784;28;20029;-61
2022/04/30 00:20:53;;;;;;;7.53;5.40;;;12.20;57.30;;;;;;5072896;28;20036;-61
2022/04/30 00:23:21;;;;;;;6.40;4.75;;;12.20;57.30;;;;;;5073830;28;20056;-61
2022/04/30 00:25:54;;;;;;;6.25;4.70;;;12.20;57.40;;;;;;5073305;28;20105;-61
2022/04/30 00:28:22;;;;;;;6.90;4.97;;;12.20;57.00;;;;;;5073972;28;20028;-61
2022/04/30 00:30:48;;;;;;;6.68;5.25;;;12.20;57.50;;;;;;5073659;28;20036;-61
2022/04/30 00:33:14;;;;;;;6.45;5.00;;;12.10;57.80;;;;;;5070212;28;20476;-61
2022/04/30 00:35:40;;;;;;;7.22;5.20;;;12.10;58.00;;;;;;5069713;28;20476;-61
2022/04/30 00:38:07;;;;;;;6.60;5.05;;;12.10;58.50;;;;;;5069145;28;20024;-61
2022/04/30 00:40:32;;;;;;;9.07;5.22;;;12.00;58.50;;;;;;5072012;28;20020;-61
2022/04/30 00:42:58;;;;;;;6.47;4.85;;;11.90;58.50;;;;;;5072278;28;20544;-61
2022/04/30 00:45:24;;;;;;;7.30;5.32;;;11.90;58.60;;;;;;5070692;28;20493;-61
2022/04/30 00:47:50;;;;;;;7.68;4.97;;;11.90;58.80;;;;;;5073273;28;20043;-61
2022/04/30 00:50:17;;;;;;;7.50;5.47;;;11.80;58.90;;;;;;5072507;28;20384;-61
2022/04/30 00:52:46;;;;;;;7.10;5.28;;;11.80;59.10;;;;;;5072512;28;20037;-61
2022/04/30 00:55:13;;;;;;;5.50;4.90;;;11.70;59.20;;;;;;5060972;28;20028;-61
2022/04/30 00:57:42;;;;;;;9.25;4.50;;;11.70;59.40;;;;;;5071726;28;20036;-61
2022/04/30 01:00:08;;;;;;;5.97;4.70;;;11.60;59.30;;;;;;5071549;28;20071;-61
2022/04/30 01:02:34;;;;;;;6.70;5.25;;;11.60;59.30;;;;;;5070958;28;20051;-61
2022/04/30 01:05:00;;;;;;;6.97;5.15;;;11.60;59.40;;;;;;5071000;28;20020;-61
2022/04/30 01:07:30;;;;;;;6.32;4.72;;;11.60;59.50;;;;;;5072298;28;20036;-61
2022/04/30 01:09:56;;;;;;;7.20;4.78;;;11.50;59.70;;;;;;5063706;28;20029;-61
2022/04/30 01:12:23;;;;;;;6.80;5.00;;;11.50;59.80;;;;;;5072346;28;20028;-61
2022/04/30 01:14:52;;;;;;;6.20;4.93;;;11.50;59.90;;;;;;5067173;28;20028;-61
2022/04/30 01:17:18;;;;;;;8.15;4.82;;;11.50;60.00;;;;;;5063965;28;20146;-61
2022/04/30 01:19:43;;;;;;;7.72;4.47;;;11.50;59.80;;;;;;5063559;28;20052;-61
2022/04/30 01:22:26;;;;;;;6.47;4.97;;;11.60;59.70;;;;;;5065839;28;20033;-61
2022/04/30 01:24:56;;;;;;;5.95;4.45;;;11.60;59.70;;;;;;5061898;28;20021;-61
2022/04/30 01:27:26;;;;;;;5.72;4.38;;;11.60;59.70;;;;;;5071070;28;20025;-61
2022/04/30 01:29:57;;;;;;;5.00;4.43;;;11.70;59.80;;;;;;5063935;28;20404;-61
2022/04/30 01:38:06;;;;;;;5.50;4.70;;;11.70;59.70;;;;;;5071372;28;20111;-61
2022/04/30 01:40:32;;;;;;;6.18;4.60;;;11.70;59.70;;;;;;5072330;28;20108;-61
2022/04/30 01:43:01;;;;;;;5.68;4.78;;;11.70;59.70;;;;;;5067718;28;20031;-61
2022/04/30 01:45:28;;;;;;;5.80;4.63;;;11.70;59.80;;;;;;5064871;28;20074;-61
2022/04/30 01:47:56;;;;;;;7.90;4.78;;;11.80;59.90;;;;;;5072526;28;20021;-61
2022/04/30 01:50:22;;;;;;;5.97;4.50;;;11.80;59.90;;;;;;5072366;28;20111;-61
2022/04/30 01:52:48;;;;;;;7.40;5.10;;;11.80;60.00;;;;;;5070023;28;20086;-61
2022/04/30 01:55:13;;;;;;;5.20;4.45;;;11.80;60.10;;;;;;5072466;28;20119;-61
2022/04/30 01:57:40;;;;;;;6.25;4.82;;;11.80;60.10;;;;;;5072029;28;20028;-61
2022/04/30 02:00:08;;;;;;;6.32;4.75;;;11.80;60.00;;;;;;5070107;28;20512;-61
2022/04/30 02:02:35;;;;;;;7.18;5.40;;;11.80;60.80;;;;;;5072350;28;20408;-61
2022/04/30 02:05:03;;;;;;;7.97;5.40;;;11.80;60.30;;;;;;5072058;28;20025;-61
2022/04/30 02:07:31;;;;;;;7.03;5.57;;;11.80;60.30;;;;;;5071022;28;20094;-61
2022/04/30 02:09:59;;;;;;;5.47;4.80;;;11.80;60.40;;;;;;5072223;28;20029;-61
2022/04/30 02:12:27;;;;;;;8.45;6.70;;;11.80;60.50;;;;;;5071926;28;20025;-61
2022/04/30 02:14:55;;;;;;;9.80;6.82;;;11.70;60.50;;;;;;5069470;28;20033;-61
2022/04/30 02:17:22;;;;;;;8.95;7.43;;;11.70;60.90;;;;;;5067809;28;20399;-61
2022/04/30 02:22:38;;;;;;;9.90;7.45;;;11.60;61.60;;;;;;5071065;28;20054;-61
2022/04/30 02:25:09;;;;;;;10.05;8.88;;;11.50;62.00;;;;;;5069952;28;20103;-61
2022/04/30 02:27:38;;;;;;;;;;;11.50;62.50;;;;;;5072190;28;20477;-61
2022/04/30 02:30:15;;;;;;;9.68;8.05;;;11.40;62.80;;;;;;5061547;28;19905;-61
2022/04/30 02:32:42;;;;;;;13.07;8.00;;;11.40;63.20;;;;;;5059793;28;20448;-61
2022/04/30 02:35:09;;;;;;;10.82;8.00;;;11.30;63.50;;;;;;5061220;28;20120;-61
2022/04/30 02:37:35;;;;;;;11.32;8.07;;;11.30;63.80;;;;;;5070290;28;20032;-61
2022/04/30 02:40:02;;;;;;;10.23;7.63;;;11.30;63.90;;;;;;5071577;28;20024;-61
2022/04/30 02:42:28;;;;;;;10.07;8.25;;;11.30;64.10;;;;;;5071552;28;20181;-61
2022/04/30 02:44:53;;;;;;;10.13;8.15;;;11.30;64.20;;;;;;5071423;28;20017;-61
2022/04/30 02:47:19;;;;;;;10.68;7.97;;;11.30;64.10;;;;;;5071365;28;20032;-61
2022/04/30 02:49:45;;;;;;;11.05;8.32;;;11.30;64.20;;;;;;5070460;28;20025;-61
2022/04/30 02:52:10;;;;;;;12.38;8.38;;;11.40;63.90;;;;;;5058887;28;20106;-61
2022/04/30 02:54:36;;;;;;;11.70;8.52;;;11.40;63.70;;;;;;5071510;28;20020;-61
2022/04/30 02:57:02;;;;;;;11.73;8.77;;;11.50;63.50;;;;;;5071430;28;20027;-61
2022/04/30 03:02:12;;;;;;;13.43;8.82;;;11.50;63.70;;;;;;5071331;28;20070;-61
2022/04/30 03:04:38;;;;;;;9.70;8.02;;;11.50;63.40;;;;;;5074257;28;20037;-61
2022/04/30 03:07:04;;;;;;;10.95;8.30;;;11.60;63.60;;;;;;5069216;28;20028;-61
2022/04/30 03:09:30;;;;;;;11.10;8.15;;;11.70;63.50;;;;;;5069173;28;20039;-61
2022/04/30 03:11:58;;;;;;;14.20;7.75;;;11.70;63.30;;;;;;5075483;28;20399;-61
2022/04/30 03:14:23;;;;;;;12.13;8.02;;;11.80;63.20;;;;;;5075563;28;20502;-61
2022/04/30 03:22:18;;;;;;;10.45;7.43;;;12.20;63.00;;;;;;5070668;28;20056;-61
2022/04/30 03:24:44;;;;;;;8.98;7.25;;;12.40;63.00;;;;;;5073336;28;20025;-61
2022/04/30 03:27:11;;;;;;;8.38;6.43;;;12.50;62.90;;;;;;5073725;28;20066;-61
2022/04/30 03:29:36;;;;;;;8.77;6.03;;;12.60;62.80;;;;;;5075008;28;20090;-61
2022/04/30 03:32:02;;;;;;;8.10;5.97;;;12.80;62.70;;;;;;5074677;28;20021;-61
2022/04/30 03:34:32;;;;;;;7.43;5.68;;;12.90;62.10;;;;;;5074972;28;20361;-61
2022/04/30 03:36:58;;;;;;;7.55;5.65;;;13.10;61.90;;;;;;5074276;28;20029;-61
2022/04/30 03:39:24;;;;;;;7.53;5.40;;;13.30;61.90;;;;;;5074351;28;20103;-61
2022/04/30 03:41:49;;;;;;;6.75;5.53;;;13.50;61.80;;;;;;5071229;28;20107;-61
2022/04/30 03:44:16;;;;;;;7.38;6.10;;;13.70;61.50;;;;;;5074389;28;20024;-61
2022/04/30 03:46:42;;;;;;;7.32;6.13;;;13.80;61.40;;;;;;5073616;28;20036;-61
2022/04/30 03:49:07;;;;;;;9.35;6.53;;;14.00;61.30;;;;;;5074567;28;20090;-61
2022/04/30 03:51:33;;;;;;;8.55;6.43;;;14.20;61.00;;;;;;5073125;28;20029;-61
2022/04/30 03:53:59;;;;;;;9.52;6.10;;;14.40;60.90;;;;;;5074200;28;20090;-60
2022/04/30 03:56:24;;;;;;;8.23;5.60;;;14.60;61.20;;;;;;5073876;28;20031;-61
2022/04/30 03:58:50;;;;;;;6.88;5.40;;;14.90;61.40;;;;;;5072235;28;20086;-61
2022/04/30 04:01:20;;;;;;;7.40;5.40;;;15.20;61.30;;;;;;5074279;28;20029;-61
2022/04/30 04:03:46;;;;;;;8.10;5.70;;;15.70;61.00;;;;;;5074627;28;20024;-61
2022/04/30 04:06:13;;;;;;;6.55;5.22;;;16.20;60.50;;;;;;5074189;28;20021;-60
2022/04/30 04:08:39;;;;;;;8.02;6.25;;;16.80;59.90;;;;;;5074265;28;20105;-61
2022/04/30 04:11:10;;;;;;;7.90;6.72;;;17.60;58.70;;;;;;5073873;28;20024;-61
2022/04/30 04:19:05;;;;;;;7.97;5.13;;;18.60;55.40;;;;;;5074032;28;20491;-61
2022/04/30 04:21:31;;;;;;;7.00;5.03;;;19.00;54.40;;;;;;5073607;28;20048;-61
2022/04/30 04:26:41;;;;;;;6.93;4.88;;;19.70;52.70;;;;;;5066455;28;20032;-61
2022/04/30 04:29:06;;;;;;;6.63;4.65;;;20.10;52.00;;;;;;5072295;28;20024;-60
2022/04/30 04:31:32;;;;;;;6.82;4.90;;;20.50;51.10;;;;;;5072864;28;20024;-61
2022/04/30 04:33:58;;;;;;;7.63;6.30;;;20.70;50.50;;;;;;5069026;28;20029;-61
2022/04/30 04:36:23;;;;;;;9.23;7.30;;;20.90;50.30;;;;;;5073429;28;20029;-61
2022/04/30 04:38:49;;;;;;;8.73;7.55;;;21.30;50.00;;;;;;5073312;28;20537;-61
2022/04/30 04:41:15;;;;;;;11.35;8.23;;;21.70;50.00;;;;;;5073233;28;20056;-61
2022/04/30 04:43:41;;;;;;;9.80;8.23;;;22.20;49.50;;;;;;5072129;28;20024;-61
2022/04/30 04:46:07;;;;;;;9.50;7.65;;;22.60;48.90;;;;;;5071576;28;20023;-61
2022/04/30 04:48:34;;;;;;;9.98;7.38;;;22.90;48.60;;;;;;5072703;28;20362;-61
2022/04/30 04:51:01;;;;;;;6.43;5.78;;;23.20;48.70;;;;;;5069543;28;20028;-61
2022/04/30 04:53:26;;;;;;;6.68;4.97;;;23.50;48.40;;;;;;5073337;28;20036;-60
2022/04/30 04:55:52;;;;;;;7.97;6.10;;;23.70;48.00;;;;;;5072997;28;20368;-61
2022/04/30 04:58:18;;;;;;;6.70;5.22;;;23.90;47.90;;;;;;5070274;28;20048;-60
2022/04/30 05:00:43;;;;;;;8.68;5.45;;;24.00;47.70;;;;;;5055204;28;20392;-61
2022/04/30 05:03:09;;;;;;;8.75;6.50;;;24.20;47.70;;;;;;5072174;28;20029;-61
2022/04/30 05:05:35;;;;;;;7.72;5.93;;;24.30;48.00;;;;;;5072734;28;20041;-61
2022/04/30 05:08:01;;;;;;;10.55;5.85;;;24.50;46.90;;;;;;5060827;28;20032;-61
2022/04/30 05:10:27;;;;;;;7.43;5.65;;;24.60;46.50;;;;;;5073107;28;20052;-61
2022/04/30 05:12:52;;;;;;;7.32;5.15;;;24.70;46.10;;;;;;5071173;28;20036;-61
2022/04/30 05:15:18;;;;;;;5.88;4.90;;;24.70;45.90;;;;;;5071803;28;20404;-61
2022/04/30 05:17:44;;;;;;;6.40;5.05;;;24.50;46.10;;;;;;5072762;28;20028;-61
2022/04/30 05:20:10;;;;;;;7.63;5.47;;;24.30;46.40;;;;;;5060169;28;20078;-61
2022/04/30 05:22:35;;;;;;;6.20;5.03;;;24.20;46.50;;;;;;5072291;28;20045;-61
2022/04/30 05:25:01;;;;;;;7.07;5.50;;;24.30;46.60;;;;;;5071975;28;20031;-61
2022/04/30 05:27:27;;;;;;;7.30;5.05;;;24.50;46.00;;;;;;5064019;28;20271;-60
2022/04/30 05:29:53;;;;;;;6.72;4.82;;;24.70;45.40;;;;;;5065757;28;20035;-61
2022/04/30 05:32:19;;;;;;;6.25;4.43;;;24.60;44.80;;;;;;5070513;28;20017;-61
2022/04/30 05:34:45;;;;;;;5.28;4.57;;;24.30;44.90;;;;;;5069732;28;20025;-61
2022/04/30 05:37:12;;;;;;;4.35;3.92;;;23.80;45.30;;;;;;5070475;28;20476;-61
2022/04/30 05:39:37;;;;;;;6.05;4.22;;;23.30;45.80;;;;;;5071939;28;20480;-61
2022/04/30 05:42:04;;;;;;;4.78;3.80;;;22.70;46.50;;;;;;5065333;28;20077;-61
2022/04/30 05:44:29;;;;;;;6.13;4.10;;;22.10;47.10;;;;;;5069513;28;20067;-61
2022/04/30 05:46:55;;;;;;;4.53;3.67;;;21.40;47.70;;;;;;5071653;28;20063;-61
2022/04/30 05:49:21;;;;;;;5.53;3.90;;;20.80;48.40;;;;;;5071947;28;20048;-61
2022/04/30 05:51:49;;;;;;;5.80;4.18;;;20.40;49.00;;;;;;5069587;28;20107;-61
2022/04/30 05:54:16;;;;;;;4.97;3.92;;;19.90;49.70;;;;;;5059938;28;20055;-61
2022/04/30 05:56:42;;;;;;;6.80;4.25;;;19.50;50.20;;;;;;5070307;28;20036;-62
2022/04/30 05:59:08;;;;;;;5.57;4.38;;;19.10;50.80;;;;;;5066084;28;20203;-61
2022/04/30 06:01:34;;;;;;;6.05;3.95;;;18.90;51.30;;;;;;5071937;28;20120;-62
2022/04/30 06:04:00;;;;;;;5.20;4.38;;;18.60;51.80;;;;;;5071712;28;20529;-61
2022/04/30 06:06:26;;;;;;;6.45;5.70;;;18.30;52.60;;;;;;5072048;28;20021;-61
2022/04/30 06:08:52;;;;;;;8.15;5.93;;;18.10;53.30;;;;;;5071024;28;20037;-61
2022/04/30 06:11:17;;;;;;;6.38;5.40;;;17.90;53.90;;;;;;5067000;28;20549;-61
2022/04/30 06:13:43;;;;;;;6.88;5.57;;;17.80;54.20;;;;;;5066643;28;20038;-61
2022/04/30 06:16:09;;;;;;;7.05;5.30;;;17.70;54.50;;;;;;5070725;28;20035;-61
2022/04/30 06:18:34;;;;;;;8.70;5.45;;;17.60;54.60;;;;;;5071393;28;20086;-61
2022/04/30 06:21:01;;;;;;;7.55;5.40;;;17.50;55.10;;;;;;5071763;28;20103;-61
2022/04/30 06:23:27;;;;;;;6.85;5.70;;;17.40;55.60;;;;;;5071317;28;20040;-61
2022/04/30 06:25:53;;;;;;;7.13;5.60;;;17.30;56.00;;;;;;5068375;28;20077;-61
2022/04/30 06:28:19;;;;;;;8.40;5.70;;;17.30;56.40;;;;;;5070387;28;20033;-61
2022/04/30 06:30:45;;;;;;;8.32;5.80;;;17.20;56.60;;;;;;5071683;28;20032;-61
2022/04/30 06:33:11;;;;;;;6.47;5.55;;;17.20;56.80;;;;;;5060562;28;20036;-61
2022/04/30 06:35:37;;;;;;;8.02;6.03;;;17.10;57.10;;;;;;5071777;28;20032;-61
2022/04/30 06:38:04;;;;;;;7.38;5.65;;;17.10;57.30;;;;;;5069341;28;20044;-61
2022/04/30 06:40:31;;;;;;;7.78;5.63;;;17.10;57.70;;;;;;5071333;28;20487;-61
2022/04/30 06:42:57;;;;;;;7.03;5.22;;;17.10;57.90;;;;;;5070563;28;20416;-61
2022/04/30 06:45:23;;;;;;;7.72;5.82;;;17.10;57.90;;;;;;5070450;28;20121;-61
2022/04/30 06:47:49;;;;;;;6.97;5.60;;;17.10;58.10;;;;;;5071152;28;20088;-61
2022/04/30 06:50:14;;;;;;;7.00;5.15;;;17.10;58.10;;;;;;5066999;28;20025;-61
2022/04/30 06:58:09;;;;;;;6.13;5.03;;;17.00;57.70;;;;;;5070755;28;20124;-61
2022/04/30 07:03:29;;;;;;;6.50;5.10;;;17.10;57.80;;;;;;5045528;28;20028;-61
2022/04/30 07:06:03;;;;;;;5.57;4.97;;;17.10;57.80;;;;;;5067646;28;20483;-61
2022/04/30 07:08:33;;;;;;;5.93;5.07;;;17.10;58.00;;;;;;5066154;28;20020;-61
2022/04/30 07:11:01;;;;;;;6.57;5.13;;;17.00;58.30;;;;;;5070928;28;20077;-61
2022/04/30 07:13:26;;;;;;;6.60;5.28;;;17.00;58.30;;;;;;5048623;28;20051;-61
2022/04/30 07:15:52;;;;;;;6.85;5.43;;;17.00;58.10;;;;;;5065795;28;20036;-61
2022/04/30 07:18:18;;;;;;;6.85;5.93;;;17.00;58.10;;;;;;5065257;28;20024;-62
2022/04/30 07:20:44;;;;;;;7.95;6.40;;;17.00;58.10;;;;;;5069137;28;20032;-61
2022/04/30 07:23:09;;;;;;;7.28;5.90;;;17.00;58.10;;;;;;5056451;28;20099;-61
2022/04/30 07:25:36;;;;;;;6.93;5.75;;;17.00;58.00;;;;;;5067512;28;20031;-61
2022/04/30 07:28:02;;;;;;;7.47;5.47;;;17.00;58.00;;;;;;5066012;28;20310;-61
2022/04/30 07:30:28;;;;;;;6.32;4.85;;;17.10;58.20;;;;;;5069328;28;20119;-61
2022/04/30 07:32:54;;;;;;;5.40;4.43;;;17.10;58.10;;;;;;5061713;28;20036;-61
2022/04/30 07:35:19;;;;;;;6.15;4.95;;;17.10;57.70;;;;;;5058339;28;20064;-61
2022/04/30 07:37:45;;;;;;;5.88;4.68;;;17.20;57.60;;;;;;5061610;28;20025;-61
2022/04/30 07:40:13;;;;;;;7.63;6.25;;;17.30;57.20;;;;;;5063904;28;20021;-61
2022/04/30 07:42:39;;;;;;;6.90;5.55;;;17.40;56.60;;;;;;5060296;28;20111;-61
2022/04/30 07:45:05;;;;;;;8.10;6.13;;;17.40;56.40;;;;;;5061167;28;20143;-61
2022/04/30 07:47:30;;;;;;;9.43;7.32;;;17.50;56.10;;;;;;5064772;28;20024;-61
2022/04/30 07:49:56;;;;;;;7.90;6.50;;;17.50;55.90;;;;;;5062647;28;20057;-61
2022/04/30 07:52:22;;;;;;;9.00;5.32;;;17.50;56.00;;;;;;5063352;28;20029;-61
2022/04/30 07:54:48;;;;;;;8.75;6.05;;;17.50;55.80;;;;;;5051563;28;20522;-61
2022/04/30 07:57:13;;;;;;;7.47;5.78;;;17.40;55.80;;;;;;5056486;28;20146;-61
2022/04/30 07:59:39;;;;;;;7.40;5.15;;;17.50;55.90;;;;;;5065844;28;20059;-61
2022/04/30 08:02:05;;;;;;;6.07;4.35;;;17.50;55.50;;;;;;5063988;28;20492;-61
2022/04/30 08:04:31;;;;;;;6.60;4.53;;;17.50;55.20;;;;;;5045236;28;20025;-61
2022/04/30 08:06:59;;;;;;;7.70;4.80;;;17.50;55.20;;;;;;5062353;28;20104;-60
2022/04/30 08:09:25;;;;;;;6.20;4.53;;;17.60;55.20;;;;;;5070428;28;20036;-60
2022/04/30 08:11:51;;;;;;;6.60;4.80;;;17.60;54.80;;;;;;5067316;28;20024;-60
2022/04/30 08:14:17;;;;;;;6.18;4.95;;;17.60;54.60;;;;;;5067390;28;20463;-59
2022/04/30 08:16:44;;;;;;;6.22;4.72;;;17.70;54.40;;;;;;5067931;28;20024;-59
2022/04/30 08:19:11;;;;;;;6.45;4.78;;;17.70;54.20;;;;;;5065590;28;20397;-60
2022/04/30 08:21:38;;;;;;;6.57;5.13;;;17.70;54.00;;;;;;5063563;28;20488;-60
2022/04/30 08:24:04;;;;;;;5.72;4.43;;;17.70;53.80;;;;;;5070128;28;20028;-60
2022/04/30 08:26:31;;;;;;;6.10;5.30;;;17.70;53.80;;;;;;5070053;28;20037;-60
2022/04/30 08:28:58;;;;;;;6.10;4.57;;;17.60;53.50;;;;;;5070290;28;20044;-60
2022/04/30 08:31:24;;;;;;;5.55;4.47;;;17.60;53.70;;;;;;5069789;28;20037;-60
2022/04/30 08:33:50;;;;;;;6.15;4.82;;;17.50;53.60;;;;;;5069492;28;20037;-60
2022/04/30 08:36:17;;;;;;;6.35;5.22;;;17.50;53.50;;;;;;5062404;28;20056;-60
2022/04/30 08:38:43;;;;;;;5.50;4.60;;;17.40;53.40;;;;;;5065832;28;20104;-60
2022/04/30 08:41:10;;;;;;;8.35;5.15;;;17.40;53.20;;;;;;5071209;28;20162;-60
2022/04/30 08:43:39;;;;;;;6.07;4.90;;;17.40;53.20;;;;;;5071690;28;20035;-60
2022/04/30 08:46:05;;;;;;;5.93;4.53;;;17.40;53.50;;;;;;5066302;28;20760;-59
2022/04/30 08:48:31;;;;;;;6.28;4.68;;;17.40;53.70;;;;;;5060813;28;20049;-60
2022/04/30 08:50:58;;;;;;;4.95;4.25;;;17.40;54.50;;;;;;5070974;28;20031;-59
2022/04/30 08:53:24;;;;;;;5.13;4.40;;;17.30;53.60;;;;;;5071874;28;20033;-60
2022/04/30 08:55:49;;;;;;;5.68;4.70;;;17.40;53.50;;;;;;5069308;28;20051;-60
2022/04/30 08:58:16;;;;;;;5.22;4.35;;;17.40;53.40;;;;;;5070751;28;20094;-60
2022/04/30 09:00:45;;;;;;;5.10;4.00;;;17.50;53.20;;;;;;5070486;28;20028;-60
2022/04/30 09:03:17;;;;;;;5.95;4.38;;;17.50;53.10;;;;;;5068690;28;20458;-60
2022/04/30 09:05:43;;;;;;;5.85;3.92;;;17.60;52.60;;;;;;5064805;28;20017;-60
2022/04/30 09:08:09;;;;;;;4.82;3.83;;;17.50;52.30;;;;;;5065266;28;20028;-60
2022/04/30 09:10:41;;;;;;;5.32;4.28;;;17.50;52.20;;;;;;5069346;28;20392;-60
2022/04/30 09:13:09;;;;;;;4.93;3.85;;;17.50;52.10;;;;;;5067014;28;20017;-60
2022/04/30 09:15:36;;;;;;;5.20;4.07;;;17.50;52.10;;;;;;5061210;28;20029;-60
2022/04/30 09:18:04;;;;;;;6.07;4.05;;;17.40;52.10;;;;;;5068146;28;20032;-60
2022/04/30 09:20:40;;;;;;;5.95;4.78;;;17.40;52.20;;;;;;5075475;28;20236;-60
2022/04/30 09:23:06;;;;;;;5.95;4.80;;;17.40;52.20;;;;;;5049815;28;20064;-60
2022/04/30 09:25:31;;;;;;;4.68;3.90;;;17.40;52.20;;;;;;5046154;28;20033;-59
2022/04/30 09:27:57;;;;;;;5.05;3.97;;;17.40;52.20;;;;;;5049988;28;20112;-60
2022/04/30 09:30:25;;;;;;;4.72;3.97;;;17.40;51.90;;;;;;5051684;28;20029;-60
2022/04/30 09:33:06;;;;;;;3.58;3.17;;;17.40;51.80;;;;;;5047124;28;20115;-60
2022/04/30 09:38:17;;;;;;;4.57;3.55;;;17.20;51.70;;;;;;5045451;28;19932;-60
2022/04/30 09:40:57;;;;;;;6.43;3.95;;;17.20;51.70;;;;;;5050076;28;20017;-59
2022/04/30 09:43:34;;;;;;;4.25;3.63;;;17.20;51.90;;;;;;5035039;28;20081;-60
2022/04/30 09:46:01;;;;;;;5.65;3.75;;;17.20;51.90;;;;;;5049392;28;20500;-60
2022/04/30 09:54:02;;;;;;;5.25;4.00;;;17.30;51.40;;;;;;5044644;28;20440;-60
2022/04/30 09:56:38;;;;;;;4.13;3.50;;;17.30;51.40;;;;;;5039238;28;20056;-60
2022/04/30 09:59:15;;;;;;;4.75;3.95;;;17.40;51.30;;;;;;5046207;28;20037;-60
2022/04/30 10:01:48;;;;;;;5.07;3.88;;;17.40;51.50;;;;;;5050637;28;20021;-60
2022/04/30 10:04:17;;;;;;;5.75;3.70;;;17.50;51.60;;;;;;5049598;28;20025;-60
2022/04/30 10:06:45;;;;;;;4.97;3.80;;;17.40;51.50;;;;;;5047830;28;20174;-60
2022/04/30 10:09:15;;;;;;;5.25;4.05;;;17.50;51.50;;;;;;5049081;28;20115;-60
2022/04/30 10:11:56;;;;;;;4.88;3.80;;;17.50;51.30;;;;;;5047525;28;20075;-60
2022/04/30 10:14:52;;;;;;;3.80;3.30;;;17.60;51.90;;;;;;5049251;28;20048;-59
2022/04/30 10:17:22;;;;;;;3.70;2.88;;;17.60;51.90;;;;;;5047630;28;20114;-60
2022/04/30 10:20:09;;;;;;;3.58;2.60;;;17.60;52.40;;;;;;5045251;28;20041;-60
2022/04/30 10:22:38;;;;;;;3.17;2.88;;;17.60;53.10;;;;;;5059538;28;20400;-60
2022/04/30 10:25:04;;;;;;;3.88;2.90;;;17.50;53.40;;;;;;5061392;28;20024;-60
2022/04/30 10:27:45;;;;;;;3.20;2.72;;;17.40;54.00;;;;;;5063641;28;20029;-60
2022/04/30 10:30:27;;;;;;;4.18;2.72;;;17.40;54.40;;;;;;5059968;28;20480;-60
2022/04/30 10:33:06;;;;;;;2.60;2.40;;;17.40;54.80;;;;;;5049547;28;20426;-60
2022/04/30 10:35:34;;;;;;;3.13;2.72;;;17.40;55.20;;;;;;5066147;28;20081;-60
2022/04/30 10:38:20;;;;;;;2.55;2.35;;;17.40;55.60;;;;;;5065118;28;20028;-60
2022/04/30 10:40:51;;;;;;;3.17;2.47;;;17.40;55.70;;;;;;5063484;28;20025;-60
2022/04/30 10:43:17;;;;;;;;;;;17.30;55.60;;;;;;5062747;28;20020;-60
2022/04/30 10:45:43;;;;;;;2.72;2.50;;;17.30;55.70;;;;;;5064551;28;19915;-60
2022/04/30 10:48:09;;;;;;;4.38;2.70;;;17.30;55.60;;;;;;5063363;28;20025;-60
2022/04/30 10:50:35;;;;;;;3.55;2.90;;;17.30;55.70;;;;;;5066597;28;20072;-60
2022/04/30 10:53:02;;;;;;;4.38;3.10;;;17.30;55.70;;;;;;5062546;28;20536;-60
2022/04/30 10:55:29;;;;;;;2.67;2.40;;;17.30;55.60;;;;;;5062326;28;20040;-61
2022/04/30 10:57:55;;;;;;;3.03;2.72;;;17.30;55.40;;;;;;5067027;28;20499;-61
2022/04/30 11:00:23;;;;;;;3.35;2.65;;;17.30;55.30;;;;;;5062305;28;20021;-60
2022/04/30 11:02:49;;;;;;;2.63;2.42;;;17.20;55.20;;;;;;5061926;28;20032;-60
2022/04/30 11:05:23;;;;;;;2.70;2.50;;;17.30;55.40;;;;;;5064023;28;20028;-60
2022/04/30 11:07:50;;;;;;;3.28;2.72;;;17.30;55.40;;;;;;5063233;28;20032;-61
2022/04/30 11:10:17;;;;;;;2.60;2.40;;;17.30;55.40;;;;;;5068627;28;20054;-60
2022/04/30 11:12:44;;;;;;;2.92;2.72;;;17.30;55.30;;;;;;5063203;28;20399;-61
2022/04/30 11:15:13;;;;;;;3.20;2.53;;;17.40;55.70;;;;;;5065119;28;20041;-62
2022/04/30 11:17:46;;;;;;;4.47;3.00;;;17.40;55.70;;;;;;5056465;28;23463;-62
2022/04/30 11:20:23;;;;;;;3.13;2.40;;;17.40;55.40;;;;;;5067822;28;20074;-62
2022/04/30 11:22:57;;;;;;;4.68;2.85;;;17.50;55.50;;;;;;5057850;28;20422;-61
2022/04/30 11:25:36;;;;;;;3.60;2.50;;;17.50;55.70;;;;;;5041891;28;20554;-63
2022/04/30 11:28:08;;;;;;;2.72;2.53;;;17.60;55.70;;;;;;5069507;28;20048;-62
2022/04/30 11:30:39;;;;;;;2.80;2.40;;;17.60;55.60;;;;;;5050786;28;20051;-62
2022/04/30 11:33:05;;;;;;;2.17;2.08;;;17.60;55.20;;;;;;5070463;28;20371;-62
2022/04/30 11:35:31;;;;;;;2.90;2.60;;;17.70;55.20;;;;;;5071788;28;20103;-62
2022/04/30 11:38:01;;;;;;;2.85;2.42;;;17.70;55.40;;;;;;5071845;28;20637;-62
2022/04/30 11:40:27;;;;;;;3.35;2.70;;;17.70;55.70;;;;;;5072585;28;20047;-62
2022/04/30 11:43:04;;;;;;;2.97;2.50;;;17.70;55.90;;;;;;5055251;28;20024;-62
2022/04/30 11:45:32;;;;;;;2.92;2.45;;;17.80;55.40;;;;;;5074466;28;20021;-62
2022/04/30 11:48:03;;;;;;;2.75;2.55;;;17.80;55.00;;;;;;5074391;28;20519;-62
2022/04/30 11:50:30;;;;;;;2.83;2.55;;;17.80;54.60;;;;;;5066193;28;20064;-62
2022/04/30 11:52:57;;;;;;;2.67;2.47;;;17.80;54.40;;;;;;5069265;28;20495;-62
2022/04/30 11:55:23;;;;;;;2.72;2.42;;;17.80;54.10;;;;;;5073142;28;20661;-62
2022/04/30 11:57:50;;;;;;;3.65;2.38;;;17.80;53.80;;;;;;5064499;28;20033;-62
2022/04/30 12:00:18;;;;;;;2.60;2.38;;;17.80;53.70;;;;;;5073997;28;20020;-62
2022/04/30 12:02:49;;;;;;;2.70;2.35;;;17.90;53.60;;;;;;5073919;28;20067;-62
2022/04/30 12:05:15;;;;;;;2.72;2.53;;;17.90;53.40;;;;;;5074292;28;20066;-62
2022/04/30 12:07:43;;;;;;;3.92;3.08;;;17.90;53.30;;;;;;5073253;28;20032;-62
2022/04/30 12:10:16;;;;;;;2.75;2.55;;;17.90;53.30;;;;;;5073881;28;20047;-62
2022/04/30 12:12:42;;;;;;;3.10;2.78;;;17.90;53.30;;;;;;5073706;28;20036;-62
2022/04/30 12:15:19;;;;;;;2.90;2.63;;;17.90;53.20;;;;;;5071524;28;20484;-62
2022/04/30 12:17:46;;;;;;;3.88;3.03;;;17.90;53.10;;;;;;5065001;28;20114;-62
2022/04/30 12:25:49;;;;;;;2.85;2.65;;;17.90;52.80;;;;;;5070002;28;20069;-62
2022/04/30 12:28:15;;;;;;;2.88;2.58;;;17.80;52.80;;;;;;5073587;28;20020;-62
2022/04/30 12:30:54;;;;;;;2.95;2.65;;;17.80;52.80;;;;;;5070568;28;20028;-62
2022/04/30 12:33:20;;;;;;;3.38;2.80;;;17.80;52.70;;;;;;5073326;28;20052;-62
2022/04/30 12:35:57;;;;;;;3.97;2.92;;;17.80;52.70;;;;;;5071671;28;20043;-62
2022/04/30 12:38:22;;;;;;;3.08;2.78;;;17.80;52.60;;;;;;5073668;28;20029;-62
2022/04/30 12:40:48;;;;;;;3.00;2.70;;;17.80;52.50;;;;;;5071539;28;20028;-62
2022/04/30 12:43:16;;;;;;;3.15;2.72;;;17.80;52.50;;;;;;5072265;28;20020;-62
2022/04/30 12:45:48;;;;;;;3.88;2.55;;;17.80;52.40;;;;;;5071263;28;20059;-62
2022/04/30 12:48:14;;;;;;;3.05;2.70;;;17.80;52.40;;;;;;5063189;28;20503;-62
2022/04/30 12:50:40;;;;;;;3.88;2.78;;;17.80;52.30;;;;;;5073084;28;20025;-62
2022/04/30 12:53:09;;;;;;;3.80;3.00;;;17.80;52.40;;;;;;5073122;28;20044;-62
2022/04/30 12:55:42;;;;;;;3.72;2.58;;;17.70;52.00;;;;;;5072603;28;20111;-62
2022/04/30 12:58:09;;;;;;;3.00;2.63;;;17.70;52.00;;;;;;5063400;28;20035;-62
2022/04/30 13:00:35;;;;;;;4.75;2.55;;;17.70;51.90;;;;;;5061503;28;20027;-62
2022/04/30 13:03:01;;;;;;;3.58;2.80;;;17.70;51.80;;;;;;5068367;28;20536;-62
2022/04/30 13:05:27;;;;;;;4.82;2.70;;;17.70;51.70;;;;;;5072957;28;20685;-62
2022/04/30 13:07:54;;;;;;;2.55;2.30;;;17.70;51.50;;;;;;5072892;28;20372;-62
2022/04/30 13:15:49;;;;;;;2.80;2.60;;;17.70;51.10;;;;;;5072583;28;20548;-62
2022/04/30 13:18:15;;;;;;;4.70;2.70;;;17.70;51.10;;;;;;5071863;28;20066;-62
2022/04/30 13:20:42;;;;;;;3.00;2.55;;;17.70;50.80;;;;;;5062452;28;20053;-62
2022/04/30 13:23:07;;;;;;;2.50;2.30;;;17.80;50.70;;;;;;5072365;28;20052;-62
2022/04/30 13:25:33;;;;;;;2.70;2.50;;;17.80;50.70;;;;;;5072774;28;20024;-62
2022/04/30 13:27:59;;;;;;;3.17;2.70;;;17.80;50.60;;;;;;5072073;28;20032;-62
2022/04/30 13:30:26;;;;;;;2.58;2.38;;;17.80;50.50;;;;;;5072376;28;20024;-62
2022/04/30 13:32:51;;;;;;;2.63;2.42;;;17.80;50.60;;;;;;5070709;28;20028;-62
2022/04/30 13:35:18;;;;;;;3.30;2.47;;;17.70;50.40;;;;;;5069404;28;20150;-62
2022/04/30 13:37:45;;;;;;;3.25;2.80;;;17.70;50.40;;;;;;5062232;28;20032;-62
2022/04/30 13:40:13;;;;;;;2.45;2.25;;;17.70;50.50;;;;;;5068152;28;20029;-62